La Grange, TX

2:57 AM CST on November 14, 2019 (GMT -0600)
La Grange

Weather History for K3T5 - August, 2019

Change the Weather History Date:

Monday, August 26, 2019

  Actual Average (WUND) Record (WUND)
Temperature  
Mean Temperature 90 °F -  
Max Temperature 102 °F - - (-1)
Min Temperature 80 °F - - (-1)
Cooling Degree Days 26    
Growing Degree Days 40 (Base 50)    
Moisture  
Dew Point 78 °F    
Average Humidity 74    
Maximum Humidity 100    
Minimum Humidity 39    
Precipitation  
Precipitation 0.00 in - - ()
Sea Level Pressure  
Sea Level Pressure 29.78 in    
Wind  
Wind Speed 8 mph (South)    
Max Wind Speed 15 mph    
Max Gust Speed 28 mph    
Visibility 7 miles    
Events      
Averages and records for this station are not official NWS values.
T = Trace of Precipitation, MM = Missing Value Source: NWS Daily Summary

Daily Weather History Graph

Daily Weather History Graph

Search for Another Location

Airport or City:

Astronomy

Aug. 26, 2019 Rise Set
Actual Time 7:01 AM CDT 7:57 PM CDT
Civil Twilight 6:36 AM CDT 8:21 PM CDT
Nautical Twilight 6:07 AM CDT 8:50 PM CDT
Astronomical Twilight 5:38 AM CDT 9:20 PM CDT
Moon 2:43 AM CDT (8/26) 5:06 PM CDT (8/26)
Length of Visible Light 13h 44m
Length of Day
12h 55m
Waning Crescent, 19% of the Moon is Illuminated
Aug 26
Waning Crescent
Aug 30
New
Sep 5
First Quarter
Sep 13
Full
Sep 21
Last Quarter

Hourly Weather History & Observations

Time (CDT) Temp. Heat Index Dew Point Humidity Pressure Visibility Wind Dir Wind Speed Gust Speed Precip Events Conditions
12:15 AM 83.3 °F 96.4 °F 80.8 °F 92% 29.80 in 7.0 mi South 5.8 mph - N/A   Overcast
12:35 AM 83.3 °F 96.8 °F 81.1 °F 93% 29.79 in 5.0 mi South 6.9 mph - N/A   Mostly Cloudy
12:55 AM 82.8 °F 96.0 °F 81.5 °F 96% 29.80 in 7.0 mi South 6.9 mph - N/A   Mostly Cloudy
1:15 AM 82.9 °F 96.3 °F 81.5 °F 95% 29.80 in 7.0 mi South 6.9 mph - N/A   Mostly Cloudy
1:35 AM 82.4 °F 95.1 °F 81.5 °F 97% 29.80 in 7.0 mi South 4.6 mph - N/A   Overcast
1:55 AM 82.0 °F 94.4 °F 81.7 °F 99% 29.80 in 5.0 mi South 5.8 mph - N/A   Overcast
2:15 AM 82.4 °F 95.4 °F 81.7 °F 98% 29.80 in 5.0 mi South 5.8 mph - N/A   Overcast
2:35 AM 82.0 °F 94.1 °F 81.5 °F 98% 29.79 in 7.0 mi SSW 6.9 mph - N/A   Scattered Clouds
2:55 AM 82.0 °F 94.1 °F 81.3 °F 98% 29.79 in 7.0 mi South 6.9 mph - N/A   Clear
3:15 AM 81.9 °F 93.4 °F 81.3 °F 98% 29.78 in 7.0 mi South 5.8 mph - N/A   Clear
3:35 AM 81.5 °F 92.6 °F 81.5 °F 100% 29.79 in 7.0 mi South 4.6 mph - N/A   Clear
3:55 AM 80.6 °F 89.3 °F 80.6 °F 100% 29.78 in 7.0 mi South 3.5 mph - N/A   Clear
4:15 AM 80.6 °F 89.3 °F 80.6 °F 100% 29.78 in 7.0 mi South 5.8 mph - N/A   Clear
4:35 AM 80.6 °F 89.3 °F 80.6 °F 100% 29.79 in 7.0 mi South 5.8 mph - N/A   Clear
4:55 AM 80.2 °F 88.0 °F 80.2 °F 100% 29.79 in 7.0 mi SSE 3.5 mph - N/A   Scattered Clouds
5:15 AM 80.1 °F 87.4 °F 80.1 °F 100% 29.79 in 7.0 mi South 4.6 mph - N/A   Mostly Cloudy
5:55 AM 80.8 °F 90.0 °F 80.8 °F 100% 29.79 in 7.0 mi South 5.8 mph - N/A   Overcast
6:15 AM 80.6 °F 89.3 °F 80.6 °F 100% 29.79 in 7.0 mi South 4.6 mph - N/A   Mostly Cloudy
6:35 AM 80.2 °F 88.0 °F 80.2 °F 100% 29.80 in 7.0 mi South 4.6 mph - N/A   Mostly Cloudy
6:55 AM 80.4 °F 88.7 °F 80.4 °F 100% 29.80 in 7.0 mi South 5.8 mph - N/A   Mostly Cloudy
7:15 AM 80.6 °F 89.3 °F 80.6 °F 100% 29.81 in 7.0 mi South 4.6 mph - N/A   Mostly Cloudy
7:35 AM 80.8 °F 90.0 °F 80.8 °F 100% 29.80 in 7.0 mi South 5.8 mph - N/A   Overcast
7:55 AM 81.5 °F 92.6 °F 81.5 °F 100% 29.81 in 7.0 mi South 6.9 mph - N/A   Overcast
8:15 AM 82.0 °F 94.7 °F 82.0 °F 100% 29.81 in 5.0 mi South 6.9 mph - N/A   Overcast
8:35 AM 83.3 °F 97.6 °F 81.9 °F 95% 29.82 in 5.0 mi South 8.1 mph - N/A   Overcast
9:15 AM 86.0 °F 101.4 °F 80.4 °F 83% 29.82 in 4.0 mi South 9.2 mph - N/A   Haze
9:35 AM 86.2 °F 100.4 °F 79.5 °F 80% 29.82 in 4.0 mi SSW 10.4 mph - N/A   Haze
9:55 AM 88.2 °F 102.4 °F 78.4 °F 73% 29.82 in 3.0 mi South 11.5 mph 19.6 mph N/A   Haze
10:15 AM 89.6 °F 104.1 °F 78.3 °F 69% 29.82 in 4.0 mi South 15.0 mph 23.0 mph N/A   Haze
10:35 AM 90.7 °F 105.2 °F 77.7 °F 66% 29.82 in 5.0 mi SSW 10.4 mph - N/A   Haze
10:55 AM 91.0 °F 104.8 °F 77.2 °F 64% 29.82 in 3.0 mi SSW 12.7 mph 19.6 mph N/A   Haze
11:15 AM 90.9 °F 103.7 °F 76.5 °F 63% 29.82 in 3.0 mi SSW 11.5 mph 19.6 mph N/A   Haze
11:35 AM 92.3 °F 105.5 °F 76.5 °F 60% 29.81 in 3.0 mi SSW 12.7 mph 18.4 mph N/A   Haze
11:55 AM 91.9 °F 103.9 °F 75.7 °F 59% 29.81 in 2.5 mi SSW 15.0 mph 18.4 mph N/A   Haze
12:15 PM 95.0 °F 107.4 °F 75.6 °F 53% 29.80 in 2.5 mi SSW 13.8 mph 25.3 mph N/A   Haze
12:35 PM 96.4 °F 109.5 °F 75.6 °F 51% 29.79 in 4.0 mi South 12.7 mph 19.6 mph N/A   Haze
12:55 PM 95.7 °F 107.7 °F 74.8 °F 51% 29.79 in 2.5 mi South 13.8 mph 23.0 mph N/A   Haze
1:15 PM 95.9 °F 106.6 °F 73.8 °F 49% 29.78 in 2.5 mi SSW 12.7 mph 20.7 mph N/A   Haze
1:35 PM 98.1 °F 108.7 °F 73.4 °F 45% 29.78 in 5.0 mi South 15.0 mph 20.7 mph N/A   Haze
1:55 PM 99.1 °F 110.5 °F 73.9 °F 44% 29.77 in 5.0 mi SW 11.5 mph 23.0 mph N/A   Haze
2:15 PM 97.9 °F 109.1 °F 73.8 °F 46% 29.76 in 7.0 mi South 10.4 mph 18.4 mph N/A   Scattered Clouds
2:35 PM 98.4 °F 110.4 °F 74.3 °F 46% 29.75 in 4.0 mi South 12.7 mph 21.9 mph N/A   Haze
2:55 PM 100.6 °F 112.3 °F 73.8 °F 42% 29.75 in 4.0 mi SSW 12.7 mph 20.7 mph N/A   Haze
3:15 PM 100.0 °F 111.0 °F 73.2 °F 42% 29.74 in 5.0 mi SSW 13.8 mph 21.9 mph N/A   Haze
3:35 PM 100.8 °F 111.0 °F 72.5 °F 40% 29.73 in 7.0 mi South 11.5 mph 18.4 mph N/A   Scattered Clouds
3:55 PM 101.5 °F 112.7 °F 72.7 °F 40% 29.72 in 10.0 mi SSW 12.7 mph 27.6 mph N/A   Scattered Clouds
4:15 PM 101.5 °F 111.8 °F 72.5 °F 39% 29.71 in 7.0 mi South 8.1 mph 18.4 mph N/A   Scattered Clouds
4:55 PM 101.3 °F 112.2 °F 73.0 °F 40% 29.70 in 10.0 mi South 15.0 mph - N/A   Scattered Clouds
5:15 PM 100.2 °F 110.6 °F 72.9 °F 41% 29.70 in 10.0 mi South 11.5 mph - N/A   Scattered Clouds
5:35 PM 100.8 °F 111.8 °F 73.0 °F 41% 29.70 in 10.0 mi South 10.4 mph 17.3 mph N/A   Clear
5:55 PM 100.0 °F 111.8 °F 73.8 °F 43% 29.71 in 10.0 mi SSE 9.2 mph - N/A   Scattered Clouds
6:15 PM 99.5 °F 111.4 °F 74.3 °F 44% 29.71 in 10.0 mi SSE 9.2 mph - N/A   Scattered Clouds
6:35 PM 97.9 °F 112.5 °F 76.1 °F 50% 29.71 in 10.0 mi SSE 6.9 mph 17.3 mph N/A   Scattered Clouds
6:55 PM 96.8 °F 110.5 °F 76.1 °F 51% 29.71 in 10.0 mi SSE 10.4 mph - N/A   Clear
7:15 PM 95.4 °F 109.1 °F 76.1 °F 54% 29.72 in 10.0 mi SSE 15.0 mph 19.6 mph N/A   Clear
7:35 PM 94.1 °F 107.3 °F 76.1 °F 56% 29.72 in 10.0 mi SSE 11.5 mph 17.3 mph N/A   Clear
7:55 PM 92.7 °F 105.0 °F 76.1 °F 58% 29.73 in 10.0 mi SSE 10.4 mph 16.1 mph N/A   Clear
8:15 PM 91.6 °F 104.3 °F 76.5 °F 61% 29.74 in 10.0 mi SSE 12.7 mph 18.4 mph N/A   Clear
8:35 PM 90.3 °F 104.2 °F 77.5 °F 66% 29.75 in 10.0 mi SSE 10.4 mph 17.3 mph N/A   Clear
8:55 PM 89.1 °F 103.2 °F 78.3 °F 70% 29.76 in 10.0 mi SSE 10.4 mph 16.1 mph N/A   Clear
9:15 PM 88.3 °F 102.9 °F 78.8 °F 73% 29.78 in 10.0 mi SSE 11.5 mph 17.3 mph N/A   Clear
9:35 PM 87.4 °F 102.6 °F 79.3 °F 77% 29.79 in 10.0 mi SSE 13.8 mph 19.6 mph N/A   Clear
9:55 PM 86.9 °F 102.6 °F 79.9 °F 80% 29.79 in 10.0 mi SSE 9.2 mph - N/A   Clear
10:15 PM 86.2 °F 101.4 °F 80.1 °F 82% 29.81 in 10.0 mi SSE 9.2 mph 18.4 mph N/A   Clear
10:35 PM 85.6 °F 100.7 °F 80.2 °F 84% 29.81 in 10.0 mi SSE 10.4 mph - N/A   Scattered Clouds
10:55 PM 85.3 °F 100.5 °F 80.6 °F 86% 29.82 in 10.0 mi SSE 10.4 mph 16.1 mph N/A   Scattered Clouds
11:15 PM 84.6 °F 98.6 °F 80.4 °F 87% 29.82 in 10.0 mi SSE 9.2 mph 16.1 mph N/A   Overcast
11:35 PM 84.4 °F 98.5 °F 80.4 °F 88% 29.82 in 10.0 mi SSE 8.1 mph - N/A   Mostly Cloudy
11:55 PM 84.2 °F 97.8 °F 80.2 °F 88% 29.81 in 10.0 mi SSE 10.4 mph - N/A   Overcast